sensor_id;sensor_type;location;lat;lon;timestamp;temperature;humidity
14682;DHT22;7429;52.498;13.480;2023-06-22T00:01:48;21.60;99.90
14682;DHT22;7429;52.498;13.480;2023-06-22T00:04:51;21.50;99.90
14682;DHT22;7429;52.498;13.480;2023-06-22T00:07:54;21.40;99.90
14682;DHT22;7429;52.498;13.480;2023-06-22T00:10:57;21.30;99.90
14682;DHT22;7429;52.498;13.480;2023-06-22T00:14:00;21.30;99.90
14682;DHT22;7429;52.498;13.480;2023-06-22T00:17:05;21.10;99.90
14682;DHT22;7429;52.498;13.480;2023-06-22T00:20:09;21.10;99.90
14682;DHT22;7429;52.498;13.480;2023-06-22T00:23:13;21.10;99.90
14682;DHT22;7429;52.498;13.480;2023-06-22T00:26:19;21.10;99.90
14682;DHT22;7429;52.498;13.480;2023-06-22T00:29:22;21.00;99.90
14682;DHT22;7429;52.498;13.480;2023-06-22T00:32:28;21.00;99.90
14682;DHT22;7429;52.498;13.480;2023-06-22T00:35:31;20.90;99.90
14682;DHT22;7429;52.498;13.480;2023-06-22T00:38:35;20.90;99.90
14682;DHT22;7429;52.498;13.480;2023-06-22T00:41:43;20.90;99.90
14682;DHT22;7429;52.498;13.480;2023-06-22T00:44:46;21.00;99.90
14682;DHT22;7429;52.498;13.480;2023-06-22T00:47:50;21.00;99.90
14682;DHT22;7429;52.498;13.480;2023-06-22T00:50:54;20.90;99.90
14682;DHT22;7429;52.498;13.480;2023-06-22T00:53:58;20.90;99.90
14682;DHT22;7429;52.498;13.480;2023-06-22T00:57:02;20.90;99.90
14682;DHT22;7429;52.498;13.480;2023-06-22T01:00:06;20.90;99.90
14682;DHT22;7429;52.498;13.480;2023-06-22T01:03:23;20.80;99.90
14682;DHT22;7429;52.498;13.480;2023-06-22T01:06:32;20.90;99.90
14682;DHT22;7429;52.498;13.480;2023-06-22T01:09:52;20.90;99.90
14682;DHT22;7429;52.498;13.480;2023-06-22T01:13:03;20.80;99.90
14682;DHT22;7429;52.498;13.480;2023-06-22T01:16:13;20.80;99.90
14682;DHT22;7429;52.498;13.480;2023-06-22T01:19:39;20.70;99.90
14682;DHT22;7429;52.498;13.480;2023-06-22T01:22:59;20.60;99.90
14682;DHT22;7429;52.498;13.480;2023-06-22T01:26:17;20.60;99.90
14682;DHT22;7429;52.498;13.480;2023-06-22T01:29:24;20.60;99.90
14682;DHT22;7429;52.498;13.480;2023-06-22T01:32:32;20.60;99.90
14682;DHT22;7429;52.498;13.480;2023-06-22T01:35:37;20.60;99.90
14682;DHT22;7429;52.498;13.480;2023-06-22T01:38:41;20.60;99.90
14682;DHT22;7429;52.498;13.480;2023-06-22T01:41:47;20.60;99.90
14682;DHT22;7429;52.498;13.480;2023-06-22T01:44:53;20.50;99.90
14682;DHT22;7429;52.498;13.480;2023-06-22T01:47:56;20.50;99.90
14682;DHT22;7429;52.498;13.480;2023-06-22T01:51:06;20.40;99.90
14682;DHT22;7429;52.498;13.480;2023-06-22T01:54:12;20.40;99.90
14682;DHT22;7429;52.498;13.480;2023-06-22T01:57:16;20.40;99.90
14682;DHT22;7429;52.498;13.480;2023-06-22T02:00:21;20.40;99.90
14682;DHT22;7429;52.498;13.480;2023-06-22T02:03:30;20.30;99.90
14682;DHT22;7429;52.498;13.480;2023-06-22T02:06:37;20.30;99.90
14682;DHT22;7429;52.498;13.480;2023-06-22T02:09:46;20.40;99.90
14682;DHT22;7429;52.498;13.480;2023-06-22T02:12:52;20.40;99.90
14682;DHT22;7429;52.498;13.480;2023-06-22T02:15:57;20.40;99.90
14682;DHT22;7429;52.498;13.480;2023-06-22T02:19:01;20.40;99.90
14682;DHT22;7429;52.498;13.480;2023-06-22T02:22:08;20.40;99.90
14682;DHT22;7429;52.498;13.480;2023-06-22T02:25:12;20.40;99.90
14682;DHT22;7429;52.498;13.480;2023-06-22T02:28:15;20.40;99.90
14682;DHT22;7429;52.498;13.480;2023-06-22T02:31:20;20.40;99.90
14682;DHT22;7429;52.498;13.480;2023-06-22T02:34:33;20.40;99.90
14682;DHT22;7429;52.498;13.480;2023-06-22T02:37:36;20.30;99.90
14682;DHT22;7429;52.498;13.480;2023-06-22T02:40:43;20.30;99.90
14682;DHT22;7429;52.498;13.480;2023-06-22T02:43:46;20.30;99.90
14682;DHT22;7429;52.498;13.480;2023-06-22T02:46:50;20.30;99.90
14682;DHT22;7429;52.498;13.480;2023-06-22T02:49:55;20.40;99.90
14682;DHT22;7429;52.498;13.480;2023-06-22T02:52:58;20.40;99.90
14682;DHT22;7429;52.498;13.480;2023-06-22T02:56:09;20.40;99.90
14682;DHT22;7429;52.498;13.480;2023-06-22T02:59:12;20.40;99.90
14682;DHT22;7429;52.498;13.480;2023-06-22T03:02:16;20.40;99.90
14682;DHT22;7429;52.498;13.480;2023-06-22T03:05:23;20.40;99.90
14682;DHT22;7429;52.498;13.480;2023-06-22T03:08:28;20.40;99.90
14682;DHT22;7429;52.498;13.480;2023-06-22T03:11:32;20.40;99.90
14682;DHT22;7429;52.498;13.480;2023-06-22T03:14:37;20.50;99.90
14682;DHT22;7429;52.498;13.480;2023-06-22T03:17:42;20.50;99.90
14682;DHT22;7429;52.498;13.480;2023-06-22T03:20:46;20.50;99.90
14682;DHT22;7429;52.498;13.480;2023-06-22T03:23:49;20.50;99.90
14682;DHT22;7429;52.498;13.480;2023-06-22T03:26:52;20.50;99.90
14682;DHT22;7429;52.498;13.480;2023-06-22T03:29:57;20.60;99.90
14682;DHT22;7429;52.498;13.480;2023-06-22T03:33:03;20.60;99.90
14682;DHT22;7429;52.498;13.480;2023-06-22T03:36:08;20.50;99.90
14682;DHT22;7429;52.498;13.480;2023-06-22T03:39:12;20.50;99.90
14682;DHT22;7429;52.498;13.480;2023-06-22T03:42:15;20.50;99.90
14682;DHT22;7429;52.498;13.480;2023-06-22T03:45:18;20.40;99.90
14682;DHT22;7429;52.498;13.480;2023-06-22T03:48:25;20.40;99.90
14682;DHT22;7429;52.498;13.480;2023-06-22T03:51:28;20.40;99.90
14682;DHT22;7429;52.498;13.480;2023-06-22T03:54:32;20.40;99.90
14682;DHT22;7429;52.498;13.480;2023-06-22T03:57:35;20.50;99.90
14682;DHT22;7429;52.498;13.480;2023-06-22T04:00:38;20.50;99.90
14682;DHT22;7429;52.498;13.480;2023-06-22T04:03:42;20.50;99.90
14682;DHT22;7429;52.498;13.480;2023-06-22T04:06:46;20.60;99.90
14682;DHT22;7429;52.498;13.480;2023-06-22T04:09:49;20.60;99.90
14682;DHT22;7429;52.498;13.480;2023-06-22T04:12:52;20.60;99.90
14682;DHT22;7429;52.498;13.480;2023-06-22T04:15:55;20.60;99.90
14682;DHT22;7429;52.498;13.480;2023-06-22T04:19:00;20.60;99.90
14682;DHT22;7429;52.498;13.480;2023-06-22T04:22:03;20.70;99.90
14682;DHT22;7429;52.498;13.480;2023-06-22T04:25:09;20.70;99.90
14682;DHT22;7429;52.498;13.480;2023-06-22T04:28:14;20.80;99.90
14682;DHT22;7429;52.498;13.480;2023-06-22T04:31:18;20.80;99.90
14682;DHT22;7429;52.498;13.480;2023-06-22T04:34:24;20.80;99.90
14682;DHT22;7429;52.498;13.480;2023-06-22T04:37:29;20.90;99.90
14682;DHT22;7429;52.498;13.480;2023-06-22T04:40:33;20.90;99.90
14682;DHT22;7429;52.498;13.480;2023-06-22T04:43:36;20.90;99.90
14682;DHT22;7429;52.498;13.480;2023-06-22T04:46:39;20.90;99.90
14682;DHT22;7429;52.498;13.480;2023-06-22T04:49:44;20.90;99.90
14682;DHT22;7429;52.498;13.480;2023-06-22T04:52:50;21.00;99.90
14682;DHT22;7429;52.498;13.480;2023-06-22T04:55:54;21.10;99.90
14682;DHT22;7429;52.498;13.480;2023-06-22T04:58:58;21.10;99.90
14682;DHT22;7429;52.498;13.480;2023-06-22T05:02:01;21.20;99.90
14682;DHT22;7429;52.498;13.480;2023-06-22T05:05:07;21.20;99.90
14682;DHT22;7429;52.498;13.480;2023-06-22T05:08:11;21.30;99.90
14682;DHT22;7429;52.498;13.480;2023-06-22T05:11:15;21.40;99.90
14682;DHT22;7429;52.498;13.480;2023-06-22T05:14:18;21.50;99.90
14682;DHT22;7429;52.498;13.480;2023-06-22T05:17:22;21.50;99.90
14682;DHT22;7429;52.498;13.480;2023-06-22T05:20:26;21.60;99.90
14682;DHT22;7429;52.498;13.480;2023-06-22T05:23:30;21.60;99.90
14682;DHT22;7429;52.498;13.480;2023-06-22T05:26:34;21.70;99.90
14682;DHT22;7429;52.498;13.480;2023-06-22T05:29:37;21.70;99.90
14682;DHT22;7429;52.498;13.480;2023-06-22T05:32:41;21.70;99.90
14682;DHT22;7429;52.498;13.480;2023-06-22T05:35:47;21.70;99.90
14682;DHT22;7429;52.498;13.480;2023-06-22T05:38:51;21.60;99.90
14682;DHT22;7429;52.498;13.480;2023-06-22T05:41:54;21.70;99.90
14682;DHT22;7429;52.498;13.480;2023-06-22T05:44:57;21.70;99.90
14682;DHT22;7429;52.498;13.480;2023-06-22T05:48:00;21.80;99.90
14682;DHT22;7429;52.498;13.480;2023-06-22T05:51:05;21.80;99.90
14682;DHT22;7429;52.498;13.480;2023-06-22T05:54:08;21.90;99.90
14682;DHT22;7429;52.498;13.480;2023-06-22T05:57:11;21.90;99.90
14682;DHT22;7429;52.498;13.480;2023-06-22T06:00:15;22.00;99.90
14682;DHT22;7429;52.498;13.480;2023-06-22T06:03:19;22.00;99.90
14682;DHT22;7429;52.498;13.480;2023-06-22T06:06:24;22.00;99.90
14682;DHT22;7429;52.498;13.480;2023-06-22T06:09:30;22.00;99.90
14682;DHT22;7429;52.498;13.480;2023-06-22T06:12:33;22.00;99.90
14682;DHT22;7429;52.498;13.480;2023-06-22T06:15:37;22.10;99.90
14682;DHT22;7429;52.498;13.480;2023-06-22T06:18:40;22.20;99.90
14682;DHT22;7429;52.498;13.480;2023-06-22T06:21:44;22.30;99.90
14682;DHT22;7429;52.498;13.480;2023-06-22T06:24:48;22.30;99.90
14682;DHT22;7429;52.498;13.480;2023-06-22T06:27:52;22.40;99.90
14682;DHT22;7429;52.498;13.480;2023-06-22T06:30:57;22.40;99.90
14682;DHT22;7429;52.498;13.480;2023-06-22T06:34:00;22.50;99.90
14682;DHT22;7429;52.498;13.480;2023-06-22T06:37:05;22.60;99.90
14682;DHT22;7429;52.498;13.480;2023-06-22T06:40:09;22.80;99.90
14682;DHT22;7429;52.498;13.480;2023-06-22T06:43:13;23.00;99.90
14682;DHT22;7429;52.498;13.480;2023-06-22T06:46:16;23.10;99.90
14682;DHT22;7429;52.498;13.480;2023-06-22T06:49:21;23.20;99.90
14682;DHT22;7429;52.498;13.480;2023-06-22T06:52:25;23.30;99.90
14682;DHT22;7429;52.498;13.480;2023-06-22T06:55:28;23.40;99.90
14682;DHT22;7429;52.498;13.480;2023-06-22T06:58:34;23.50;99.90
14682;DHT22;7429;52.498;13.480;2023-06-22T07:01:38;23.70;99.90
14682;DHT22;7429;52.498;13.480;2023-06-22T07:04:42;23.80;99.90
14682;DHT22;7429;52.498;13.480;2023-06-22T07:07:46;23.70;99.90
14682;DHT22;7429;52.498;13.480;2023-06-22T07:10:52;23.80;99.90
14682;DHT22;7429;52.498;13.480;2023-06-22T07:13:55;23.80;99.90
14682;DHT22;7429;52.498;13.480;2023-06-22T07:16:58;23.80;99.90
14682;DHT22;7429;52.498;13.480;2023-06-22T07:20:02;23.70;99.90
14682;DHT22;7429;52.498;13.480;2023-06-22T07:23:10;23.70;99.90
14682;DHT22;7429;52.498;13.480;2023-06-22T07:26:13;23.90;99.90
14682;DHT22;7429;52.498;13.480;2023-06-22T07:29:18;24.00;99.90
14682;DHT22;7429;52.498;13.480;2023-06-22T07:32:22;24.10;99.90
14682;DHT22;7429;52.498;13.480;2023-06-22T07:35:25;24.30;99.90
14682;DHT22;7429;52.498;13.480;2023-06-22T07:38:31;24.40;99.90
14682;DHT22;7429;52.498;13.480;2023-06-22T07:41:34;24.40;99.90
14682;DHT22;7429;52.498;13.480;2023-06-22T07:44:38;24.50;99.90
14682;DHT22;7429;52.498;13.480;2023-06-22T07:47:41;24.50;99.90
14682;DHT22;7429;52.498;13.480;2023-06-22T07:50:44;24.60;99.90
14682;DHT22;7429;52.498;13.480;2023-06-22T07:53:49;24.60;99.90
14682;DHT22;7429;52.498;13.480;2023-06-22T07:56:52;24.60;99.90
14682;DHT22;7429;52.498;13.480;2023-06-22T07:59:56;24.70;99.90
14682;DHT22;7429;52.498;13.480;2023-06-22T08:02:59;24.90;99.90
14682;DHT22;7429;52.498;13.480;2023-06-22T08:06:06;24.90;99.90
14682;DHT22;7429;52.498;13.480;2023-06-22T08:09:12;25.00;99.90
14682;DHT22;7429;52.498;13.480;2023-06-22T08:12:15;25.00;99.90
14682;DHT22;7429;52.498;13.480;2023-06-22T08:15:19;25.00;99.90
14682;DHT22;7429;52.498;13.480;2023-06-22T08:18:23;25.00;99.90
14682;DHT22;7429;52.498;13.480;2023-06-22T08:21:27;24.90;99.90
14682;DHT22;7429;52.498;13.480;2023-06-22T08:24:31;25.00;99.90
14682;DHT22;7429;52.498;13.480;2023-06-22T08:27:34;25.00;99.90
14682;DHT22;7429;52.498;13.480;2023-06-22T08:30:38;25.00;99.90
14682;DHT22;7429;52.498;13.480;2023-06-22T08:33:41;25.10;99.90
14682;DHT22;7429;52.498;13.480;2023-06-22T08:36:50;25.10;99.90
14682;DHT22;7429;52.498;13.480;2023-06-22T08:39:55;25.20;99.90
14682;DHT22;7429;52.498;13.480;2023-06-22T08:42:58;25.30;99.90
14682;DHT22;7429;52.498;13.480;2023-06-22T08:46:01;25.30;99.90
14682;DHT22;7429;52.498;13.480;2023-06-22T08:49:05;25.30;99.90
14682;DHT22;7429;52.498;13.480;2023-06-22T08:52:08;25.40;99.90
14682;DHT22;7429;52.498;13.480;2023-06-22T08:55:13;25.50;99.90
14682;DHT22;7429;52.498;13.480;2023-06-22T08:58:16;25.60;99.90
14682;DHT22;7429;52.498;13.480;2023-06-22T09:01:21;25.60;99.90
14682;DHT22;7429;52.498;13.480;2023-06-22T09:04:24;25.70;99.90
14682;DHT22;7429;52.498;13.480;2023-06-22T09:07:28;25.60;99.90
14682;DHT22;7429;52.498;13.480;2023-06-22T09:10:33;25.80;99.90
14682;DHT22;7429;52.498;13.480;2023-06-22T09:13:37;25.90;99.90
14682;DHT22;7429;52.498;13.480;2023-06-22T09:16:40;25.90;99.90
14682;DHT22;7429;52.498;13.480;2023-06-22T09:19:43;26.00;99.90
14682;DHT22;7429;52.498;13.480;2023-06-22T09:22:46;26.10;99.90
14682;DHT22;7429;52.498;13.480;2023-06-22T09:25:50;26.20;99.90
14682;DHT22;7429;52.498;13.480;2023-06-22T09:28:53;26.30;99.90
14682;DHT22;7429;52.498;13.480;2023-06-22T09:31:57;26.40;99.90
14682;DHT22;7429;52.498;13.480;2023-06-22T09:35:03;26.50;99.90
14682;DHT22;7429;52.498;13.480;2023-06-22T09:38:08;26.50;99.90
14682;DHT22;7429;52.498;13.480;2023-06-22T09:41:13;26.60;99.90
14682;DHT22;7429;52.498;13.480;2023-06-22T09:44:16;26.60;99.90
14682;DHT22;7429;52.498;13.480;2023-06-22T09:47:19;26.60;99.90
14682;DHT22;7429;52.498;13.480;2023-06-22T09:50:22;26.60;99.90
14682;DHT22;7429;52.498;13.480;2023-06-22T09:53:25;26.60;99.90
14682;DHT22;7429;52.498;13.480;2023-06-22T09:56:29;26.70;99.90
14682;DHT22;7429;52.498;13.480;2023-06-22T09:59:33;26.70;99.90
14682;DHT22;7429;52.498;13.480;2023-06-22T10:02:36;26.70;99.90
14682;DHT22;7429;52.498;13.480;2023-06-22T10:05:39;26.80;99.90
14682;DHT22;7429;52.498;13.480;2023-06-22T10:08:42;26.90;99.90
14682;DHT22;7429;52.498;13.480;2023-06-22T10:11:47;26.80;99.90
14682;DHT22;7429;52.498;13.480;2023-06-22T10:14:50;26.70;99.90
14682;DHT22;7429;52.498;13.480;2023-06-22T10:17:53;26.80;99.90
14682;DHT22;7429;52.498;13.480;2023-06-22T10:20:57;27.00;99.90
14682;DHT22;7429;52.498;13.480;2023-06-22T10:24:00;27.20;99.90
14682;DHT22;7429;52.498;13.480;2023-06-22T10:27:09;27.30;99.90
14682;DHT22;7429;52.498;13.480;2023-06-22T10:30:13;27.50;99.90
14682;DHT22;7429;52.498;13.480;2023-06-22T10:33:19;27.60;99.90
14682;DHT22;7429;52.498;13.480;2023-06-22T10:36:23;27.60;99.90
14682;DHT22;7429;52.498;13.480;2023-06-22T10:39:26;27.60;99.90
14682;DHT22;7429;52.498;13.480;2023-06-22T10:42:30;27.80;99.90
14682;DHT22;7429;52.498;13.480;2023-06-22T10:45:33;27.80;99.90
14682;DHT22;7429;52.498;13.480;2023-06-22T10:48:36;27.70;99.90
14682;DHT22;7429;52.498;13.480;2023-06-22T10:51:39;27.90;99.90
14682;DHT22;7429;52.498;13.480;2023-06-22T10:54:43;28.00;99.90
14682;DHT22;7429;52.498;13.480;2023-06-22T10:57:48;28.10;99.90
14682;DHT22;7429;52.498;13.480;2023-06-22T11:00:51;28.10;99.90
14682;DHT22;7429;52.498;13.480;2023-06-22T11:03:54;28.20;99.90
14682;DHT22;7429;52.498;13.480;2023-06-22T11:06:58;28.40;99.90
14682;DHT22;7429;52.498;13.480;2023-06-22T11:10:01;28.50;99.90
14682;DHT22;7429;52.498;13.480;2023-06-22T11:13:05;28.60;99.90
14682;DHT22;7429;52.498;13.480;2023-06-22T11:16:12;28.80;99.90
14682;DHT22;7429;52.498;13.480;2023-06-22T11:19:16;28.70;99.90
14682;DHT22;7429;52.498;13.480;2023-06-22T11:22:19;28.70;99.90
14682;DHT22;7429;52.498;13.480;2023-06-22T11:25:22;28.70;99.90
14682;DHT22;7429;52.498;13.480;2023-06-22T11:28:27;28.80;99.90
14682;DHT22;7429;52.498;13.480;2023-06-22T11:31:30;28.80;99.90
14682;DHT22;7429;52.498;13.480;2023-06-22T11:34:33;28.70;99.90
14682;DHT22;7429;52.498;13.480;2023-06-22T11:37:36;28.70;99.90
14682;DHT22;7429;52.498;13.480;2023-06-22T11:40:40;28.90;99.90
14682;DHT22;7429;52.498;13.480;2023-06-22T11:43:44;29.10;99.90
14682;DHT22;7429;52.498;13.480;2023-06-22T11:46:47;29.10;99.90
14682;DHT22;7429;52.498;13.480;2023-06-22T11:49:50;29.10;99.90
14682;DHT22;7429;52.498;13.480;2023-06-22T11:52:53;29.30;99.90
14682;DHT22;7429;52.498;13.480;2023-06-22T11:55:56;29.30;99.90
14682;DHT22;7429;52.498;13.480;2023-06-22T11:59:01;29.20;99.90
14682;DHT22;7429;52.498;13.480;2023-06-22T12:02:04;29.20;99.90
14682;DHT22;7429;52.498;13.480;2023-06-22T12:05:09;29.70;99.90
14682;DHT22;7429;52.498;13.480;2023-06-22T12:08:12;30.00;99.90
14682;DHT22;7429;52.498;13.480;2023-06-22T12:11:16;30.20;99.90
14682;DHT22;7429;52.498;13.480;2023-06-22T12:14:20;30.20;99.90
14682;DHT22;7429;52.498;13.480;2023-06-22T12:17:24;30.10;99.90
14682;DHT22;7429;52.498;13.480;2023-06-22T12:20:27;30.00;99.90
14682;DHT22;7429;52.498;13.480;2023-06-22T12:23:31;30.20;99.90
14682;DHT22;7429;52.498;13.480;2023-06-22T12:26:34;30.60;99.90
14682;DHT22;7429;52.498;13.480;2023-06-22T12:29:39;30.80;99.90
14682;DHT22;7429;52.498;13.480;2023-06-22T12:32:42;30.80;99.90
14682;DHT22;7429;52.498;13.480;2023-06-22T12:35:45;30.80;99.90
14682;DHT22;7429;52.498;13.480;2023-06-22T12:38:50;30.90;99.90
14682;DHT22;7429;52.498;13.480;2023-06-22T12:41:55;31.00;99.90
14682;DHT22;7429;52.498;13.480;2023-06-22T12:45:00;31.40;99.90
14682;DHT22;7429;52.498;13.480;2023-06-22T12:48:04;31.60;99.90
14682;DHT22;7429;52.498;13.480;2023-06-22T12:51:08;31.40;99.90
14682;DHT22;7429;52.498;13.480;2023-06-22T12:54:11;31.50;99.90
14682;DHT22;7429;52.498;13.480;2023-06-22T12:57:14;31.50;99.90
14682;DHT22;7429;52.498;13.480;2023-06-22T13:00:21;31.20;99.90
14682;DHT22;7429;52.498;13.480;2023-06-22T13:03:24;31.00;99.90
14682;DHT22;7429;52.498;13.480;2023-06-22T13:06:29;31.20;99.90
14682;DHT22;7429;52.498;13.480;2023-06-22T13:09:32;31.40;99.90
14682;DHT22;7429;52.498;13.480;2023-06-22T13:12:36;31.60;99.90
14682;DHT22;7429;52.498;13.480;2023-06-22T13:15:41;31.80;99.90
14682;DHT22;7429;52.498;13.480;2023-06-22T13:18:44;31.70;99.90
14682;DHT22;7429;52.498;13.480;2023-06-22T13:21:47;31.60;99.90
14682;DHT22;7429;52.498;13.480;2023-06-22T13:24:50;31.90;99.90
14682;DHT22;7429;52.498;13.480;2023-06-22T13:27:56;32.10;99.90
14682;DHT22;7429;52.498;13.480;2023-06-22T13:31:01;31.90;99.90
14682;DHT22;7429;52.498;13.480;2023-06-22T13:34:04;31.70;99.90
14682;DHT22;7429;52.498;13.480;2023-06-22T13:37:07;31.70;99.90
14682;DHT22;7429;52.498;13.480;2023-06-22T13:40:10;31.90;99.90
14682;DHT22;7429;52.498;13.480;2023-06-22T13:43:13;31.90;99.90
14682;DHT22;7429;52.498;13.480;2023-06-22T13:46:18;32.10;99.90
14682;DHT22;7429;52.498;13.480;2023-06-22T13:49:22;32.10;99.90
14682;DHT22;7429;52.498;13.480;2023-06-22T13:52:25;32.10;99.90
14682;DHT22;7429;52.498;13.480;2023-06-22T13:55:28;32.40;99.90
14682;DHT22;7429;52.498;13.480;2023-06-22T13:58:32;32.60;99.90
14682;DHT22;7429;52.498;13.480;2023-06-22T14:01:37;32.60;99.90
14682;DHT22;7429;52.498;13.480;2023-06-22T14:04:43;32.70;99.90
14682;DHT22;7429;52.498;13.480;2023-06-22T14:07:47;32.90;99.90
14682;DHT22;7429;52.498;13.480;2023-06-22T14:10:50;32.90;99.90
14682;DHT22;7429;52.498;13.480;2023-06-22T14:13:55;32.90;99.90
14682;DHT22;7429;52.498;13.480;2023-06-22T14:16:59;32.90;99.90
14682;DHT22;7429;52.498;13.480;2023-06-22T14:20:03;32.90;99.90
14682;DHT22;7429;52.498;13.480;2023-06-22T14:23:09;33.10;99.90
14682;DHT22;7429;52.498;13.480;2023-06-22T14:26:13;33.20;99.90
14682;DHT22;7429;52.498;13.480;2023-06-22T14:29:16;33.30;99.90
14682;DHT22;7429;52.498;13.480;2023-06-22T14:32:20;33.40;99.90
14682;DHT22;7429;52.498;13.480;2023-06-22T14:35:24;33.40;99.90
14682;DHT22;7429;52.498;13.480;2023-06-22T14:38:27;33.10;99.90
14682;DHT22;7429;52.498;13.480;2023-06-22T14:41:30;33.00;99.90
14682;DHT22;7429;52.498;13.480;2023-06-22T14:44:35;33.20;99.90
14682;DHT22;7429;52.498;13.480;2023-06-22T14:47:39;33.40;99.90
14682;DHT22;7429;52.498;13.480;2023-06-22T14:50:42;33.30;99.90
14682;DHT22;7429;52.498;13.480;2023-06-22T14:53:46;33.30;99.90
14682;DHT22;7429;52.498;13.480;2023-06-22T14:56:50;33.30;99.90
14682;DHT22;7429;52.498;13.480;2023-06-22T14:59:53;33.10;99.90
14682;DHT22;7429;52.498;13.480;2023-06-22T15:02:58;33.20;99.90
14682;DHT22;7429;52.498;13.480;2023-06-22T15:06:02;33.10;99.90
14682;DHT22;7429;52.498;13.480;2023-06-22T15:09:06;32.90;99.90
14682;DHT22;7429;52.498;13.480;2023-06-22T15:12:09;33.10;99.90
14682;DHT22;7429;52.498;13.480;2023-06-22T15:15:13;33.30;99.90
14682;DHT22;7429;52.498;13.480;2023-06-22T15:18:17;33.30;99.90
14682;DHT22;7429;52.498;13.480;2023-06-22T15:21:21;33.20;99.90
14682;DHT22;7429;52.498;13.480;2023-06-22T15:24:24;33.00;99.90
14682;DHT22;7429;52.498;13.480;2023-06-22T15:27:29;33.00;99.90
14682;DHT22;7429;52.498;13.480;2023-06-22T15:30:32;32.90;99.90
14682;DHT22;7429;52.498;13.480;2023-06-22T15:33:37;32.90;99.90
14682;DHT22;7429;52.498;13.480;2023-06-22T15:36:40;33.00;99.90
14682;DHT22;7429;52.498;13.480;2023-06-22T15:39:44;33.10;99.90
14682;DHT22;7429;52.498;13.480;2023-06-22T15:42:50;32.70;99.90
14682;DHT22;7429;52.498;13.480;2023-06-22T15:45:55;32.40;99.90
14682;DHT22;7429;52.498;13.480;2023-06-22T15:48:59;32.20;99.90
14682;DHT22;7429;52.498;13.480;2023-06-22T15:52:03;32.40;99.90
14682;DHT22;7429;52.498;13.480;2023-06-22T15:55:07;32.40;99.90
14682;DHT22;7429;52.498;13.480;2023-06-22T15:58:11;32.20;99.90
14682;DHT22;7429;52.498;13.480;2023-06-22T16:01:15;32.10;99.90
14682;DHT22;7429;52.498;13.480;2023-06-22T16:04:19;31.90;99.90
14682;DHT22;7429;52.498;13.480;2023-06-22T16:07:22;31.50;99.90
14682;DHT22;7429;52.498;13.480;2023-06-22T16:10:26;31.10;99.90
14682;DHT22;7429;52.498;13.480;2023-06-22T16:13:29;30.90;99.90
14682;DHT22;7429;52.498;13.480;2023-06-22T16:16:32;31.10;99.90
14682;DHT22;7429;52.498;13.480;2023-06-22T16:19:37;31.20;99.90
14682;DHT22;7429;52.498;13.480;2023-06-22T16:22:40;31.00;99.90
14682;DHT22;7429;52.498;13.480;2023-06-22T16:25:43;30.90;99.90
14682;DHT22;7429;52.498;13.480;2023-06-22T16:28:46;30.80;99.90
14682;DHT22;7429;52.498;13.480;2023-06-22T16:31:49;30.60;99.90
14682;DHT22;7429;52.498;13.480;2023-06-22T16:34:54;30.40;99.90
14682;DHT22;7429;52.498;13.480;2023-06-22T16:37:57;30.40;99.90
14682;DHT22;7429;52.498;13.480;2023-06-22T16:41:00;30.40;99.90
14682;DHT22;7429;52.498;13.480;2023-06-22T16:44:04;30.20;99.90
14682;DHT22;7429;52.498;13.480;2023-06-22T16:47:08;30.00;99.90
14682;DHT22;7429;52.498;13.480;2023-06-22T16:50:13;29.80;99.90
14682;DHT22;7429;52.498;13.480;2023-06-22T16:53:17;29.70;99.90
14682;DHT22;7429;52.498;13.480;2023-06-22T16:56:24;29.60;99.90
14682;DHT22;7429;52.498;13.480;2023-06-22T16:59:28;29.60;99.90
14682;DHT22;7429;52.498;13.480;2023-06-22T17:02:33;29.40;99.90
14682;DHT22;7429;52.498;13.480;2023-06-22T17:05:39;29.10;99.90
14682;DHT22;7429;52.498;13.480;2023-06-22T17:08:43;29.00;99.90
14682;DHT22;7429;52.498;13.480;2023-06-22T17:11:51;29.00;99.90
14682;DHT22;7429;52.498;13.480;2023-06-22T17:14:54;28.90;99.90
14682;DHT22;7429;52.498;13.480;2023-06-22T17:18:01;28.80;99.90
14682;DHT22;7429;52.498;13.480;2023-06-22T17:21:06;28.80;99.90
14682;DHT22;7429;52.498;13.480;2023-06-22T17:24:11;28.80;99.90
14682;DHT22;7429;52.498;13.480;2023-06-22T17:27:26;28.70;99.90
14682;DHT22;7429;52.498;13.480;2023-06-22T17:30:30;28.70;99.90
14682;DHT22;7429;52.498;13.480;2023-06-22T17:33:34;28.70;99.90
14682;DHT22;7429;52.498;13.480;2023-06-22T17:36:43;28.60;99.90
14682;DHT22;7429;52.498;13.480;2023-06-22T17:39:51;28.60;99.90
14682;DHT22;7429;52.498;13.480;2023-06-22T17:43:02;28.50;99.90
14682;DHT22;7429;52.498;13.480;2023-06-22T17:46:07;28.40;99.90
14682;DHT22;7429;52.498;13.480;2023-06-22T17:49:13;28.30;99.90
14682;DHT22;7429;52.498;13.480;2023-06-22T17:52:19;28.30;99.90
14682;DHT22;7429;52.498;13.480;2023-06-22T17:55:22;28.10;99.90
14682;DHT22;7429;52.498;13.480;2023-06-22T17:58:26;28.10;99.90
14682;DHT22;7429;52.498;13.480;2023-06-22T18:01:31;28.10;99.90
14682;DHT22;7429;52.498;13.480;2023-06-22T18:04:37;28.00;99.90
14682;DHT22;7429;52.498;13.480;2023-06-22T18:07:44;27.80;99.90
14682;DHT22;7429;52.498;13.480;2023-06-22T18:10:48;27.70;99.90
14682;DHT22;7429;52.498;13.480;2023-06-22T18:13:51;27.70;99.90
14682;DHT22;7429;52.498;13.480;2023-06-22T18:16:55;27.70;99.90
14682;DHT22;7429;52.498;13.480;2023-06-22T18:20:01;27.70;99.90
14682;DHT22;7429;52.498;13.480;2023-06-22T18:23:09;27.50;99.90
14682;DHT22;7429;52.498;13.480;2023-06-22T18:26:13;27.40;99.90
14682;DHT22;7429;52.498;13.480;2023-06-22T18:29:18;27.20;99.90
14682;DHT22;7429;52.498;13.480;2023-06-22T18:32:23;27.20;99.90
14682;DHT22;7429;52.498;13.480;2023-06-22T18:35:26;27.20;99.90
14682;DHT22;7429;52.498;13.480;2023-06-22T18:38:32;27.10;99.90
14682;DHT22;7429;52.498;13.480;2023-06-22T18:41:37;26.90;99.90
14682;DHT22;7429;52.498;13.480;2023-06-22T18:44:42;26.90;99.90
14682;DHT22;7429;52.498;13.480;2023-06-22T18:47:55;26.90;99.90
14682;DHT22;7429;52.498;13.480;2023-06-22T18:51:10;26.80;99.90
14682;DHT22;7429;52.498;13.480;2023-06-22T18:54:21;26.80;99.90
14682;DHT22;7429;52.498;13.480;2023-06-22T18:57:26;26.80;99.90
14682;DHT22;7429;52.498;13.480;2023-06-22T19:00:31;26.70;99.90
14682;DHT22;7429;52.498;13.480;2023-06-22T19:03:37;26.60;99.90
14682;DHT22;7429;52.498;13.480;2023-06-22T19:06:54;26.60;99.90
14682;DHT22;7429;52.498;13.480;2023-06-22T19:10:23;26.50;99.90
14682;DHT22;7429;52.498;13.480;2023-06-22T19:13:29;26.40;99.90
14682;DHT22;7429;52.498;13.480;2023-06-22T19:16:32;26.40;99.90
14682;DHT22;7429;52.498;13.480;2023-06-22T19:19:36;26.40;99.90
14682;DHT22;7429;52.498;13.480;2023-06-22T19:22:47;26.30;99.90
14682;DHT22;7429;52.498;13.480;2023-06-22T19:25:59;26.30;99.90